This is the latest recevied weather packets stored in our database for station/object VK5GR-12. If no packets are shown the sender has not sent any weather packets the latest 10 day(s).
| Time | Temp. | Humidity | Pressure | Rain* | Wind** | Luminosity | Snow |
|---|---|---|---|---|---|---|---|
| 1778123314 | 15° C | 57% | 1030 hPa | 0 mm | - | 154 W/m² | - |
| 1778122412 | 15.56° C | 55% | 1030.1 hPa | 0 mm | - | 265 W/m² | - |
| 1778121508 | 15.56° C | 55% | 1030.2 hPa | 0 mm | - | 224 W/m² | - |
| 1778120604 | 15° C | 59% | 1030.4 hPa | 0 mm | - | 240 W/m² | - |
| 1778119700 | 15° C | 57% | 1030.5 hPa | 0 mm | - | 232 W/m² | - |
| 1778118796 | 15° C | 55% | 1030.6 hPa | 0 mm | - | 164 W/m² | - |
| 1778117892 | 15.56° C | 52% | 1030.5 hPa | 0 mm | - | 206 W/m² | - |
| 1778116988 | 15.56° C | 50% | 1030.4 hPa | 0 mm | - | 222 W/m² | - |
| 1778116088 | 15° C | 54% | 1030.4 hPa | 0 mm | - | 433 W/m² | - |
| 1778115183 | 15° C | 56% | 1030.3 hPa | 0 mm | - | 374 W/m² | - |
| 1778114280 | 15° C | 56% | 1030.3 hPa | 0 mm | - | 135 W/m² | - |
| 1778113379 | 14.44° C | 62% | 1030.2 hPa | 0 mm | - | 334 W/m² | - |
| 1778112476 | 13.33° C | 66% | 1030.2 hPa | 0 mm | - | 126 W/m² | - |
| 1778111576 | 12.78° C | 67% | 1030.1 hPa | 0 mm | - | 255 W/m² | - |
| 1778110674 | 12.22° C | 73% | 1030.2 hPa | 0 mm | - | 155 W/m² | - |
| 1778109774 | 11.67° C | 75% | 1030.1 hPa | 0 mm | - | 63 W/m² | - |
| 1778108872 | 11.67° C | 74% | 1029.9 hPa | 0 mm | - | 70 W/m² | - |
| 1778107968 | 10.56° C | 77% | 1029.7 hPa | 0 mm | - | 89 W/m² | - |
| 1778107064 | 10° C | 82% | 1029.7 hPa | 0 mm | - | 49 W/m² | - |
| 1778106158 | 8.89° C | 83% | 1029.4 hPa | 0 mm | - | 30 W/m² | - |
| 1778105257 | 8.89° C | 83% | 1029.2 hPa | 0 mm | - | 25 W/m² | - |
| 1778104356 | 8.33° C | 83% | 1029 hPa | 0 mm | - | 17 W/m² | - |
| 1778103454 | 8.89° C | 83% | 1028.8 hPa | 0 mm | - | 8 W/m² | - |
| 1778102550 | 8.89° C | 84% | 1028.6 hPa | 0 mm | - | 2 W/m² | - |
| 1778101645 | 8.33° C | 85% | 1028.4 hPa | 0 mm | - | 0 W/m² | - |
* Rain latest hour (hover to see other rain measurements)
** Current wind speed in m/s (hover to see current wind gust speed)